createdAt,value
2018-06-02T00:02:04.796Z,46.73
2018-06-02T00:04:31.559Z,43.73
2018-06-02T00:06:58.287Z,43.73
2018-06-02T00:09:25.046Z,47.10
2018-06-02T00:11:51.782Z,45.40
2018-06-02T00:14:18.543Z,44.27
2018-06-02T00:16:45.294Z,43.10
2018-06-02T00:19:12.033Z,46.17
2018-06-02T00:21:38.801Z,45.90
2018-06-02T00:24:05.545Z,47.57
2018-06-02T00:26:32.340Z,46.27
2018-06-02T00:28:59.059Z,46.50
2018-06-02T00:31:25.835Z,47.20
2018-06-02T00:33:52.591Z,47.90
2018-06-02T00:36:19.315Z,47.00
2018-06-02T00:38:46.067Z,46.40
2018-06-02T00:41:12.806Z,46.90
2018-06-02T00:43:39.607Z,46.30
2018-06-02T00:46:06.346Z,47.57
2018-06-02T00:48:33.076Z,48.37
2018-06-02T00:50:59.843Z,53.93
2018-06-02T00:53:26.592Z,52.20
2018-06-02T00:55:53.323Z,53.87
2018-06-02T00:58:20.085Z,55.23
2018-06-02T01:00:46.828Z,57.70
2018-06-02T01:03:13.564Z,58.07
2018-06-02T01:05:40.310Z,56.50
2018-06-02T01:08:07.055Z,61.90
2018-06-02T01:10:33.837Z,57.83
2018-06-02T01:13:00.576Z,63.73
2018-06-02T01:15:27.336Z,62.00
2018-06-02T01:17:54.071Z,61.50
2018-06-02T01:20:20.836Z,61.10
2018-06-02T01:22:47.563Z,62.20
2018-06-02T01:25:14.299Z,58.60
2018-06-02T01:27:41.047Z,59.20
2018-06-02T01:30:07.775Z,55.30
2018-06-02T01:32:34.498Z,58.63
2018-06-02T01:35:01.261Z,59.40
2018-06-02T01:37:28.001Z,54.63
2018-06-02T01:39:54.774Z,56.10
2018-06-02T01:42:21.503Z,54.53
2018-06-02T01:44:48.257Z,55.37
2018-06-02T01:47:14.994Z,57.10
2018-06-02T01:49:41.752Z,55.73
2018-06-02T01:52:08.481Z,55.60
2018-06-02T01:54:35.290Z,51.30
2018-06-02T01:57:02.012Z,50.30
2018-06-02T01:59:28.811Z,51.77
2018-06-02T02:01:55.577Z,53.53
2018-06-02T02:04:22.314Z,47.97
2018-06-02T02:06:49.084Z,49.90
2018-06-02T02:09:15.827Z,50.63
2018-06-02T02:11:43.016Z,44.77
2018-06-02T02:14:09.760Z,50.03
2018-06-02T02:16:36.506Z,48.30
2018-06-02T02:19:03.264Z,48.57
2018-06-02T02:21:30.017Z,47.50
2018-06-02T02:23:56.787Z,47.47
2018-06-02T02:26:23.521Z,49.03
2018-06-02T02:28:50.275Z,44.70
2018-06-02T02:31:17.024Z,49.70
2018-06-02T02:33:43.756Z,50.87
2018-06-02T02:36:10.517Z,47.30
2018-06-02T02:38:37.246Z,47.90
2018-06-02T02:41:03.998Z,49.03
2018-06-02T02:43:30.753Z,48.83
2018-06-02T02:45:57.519Z,49.90
2018-06-02T02:48:24.260Z,49.50
2018-06-02T02:50:51.000Z,51.30
2018-06-02T02:53:17.758Z,50.53
2018-06-02T02:55:44.533Z,50.43
2018-06-02T02:58:11.307Z,50.63
2018-06-02T03:00:38.110Z,51.93
2018-06-02T03:03:04.976Z,51.80
2018-06-02T03:05:31.793Z,48.67
2018-06-02T03:07:59.758Z,48.90
2018-06-02T03:10:28.188Z,48.13
2018-06-02T03:12:54.936Z,49.97
2018-06-02T03:15:21.753Z,48.40
2018-06-02T03:17:48.500Z,48.80
2018-06-02T03:20:15.250Z,44.50
2018-06-02T03:22:42.001Z,45.67
2018-06-02T03:25:08.781Z,45.27
2018-06-02T03:27:35.515Z,47.57
2018-06-02T03:30:02.296Z,47.30
2018-06-02T03:32:29.026Z,47.30
2018-06-02T03:34:55.754Z,46.77
2018-06-02T03:37:22.503Z,44.13
2018-06-02T03:39:49.235Z,46.80
2018-06-02T03:42:15.984Z,47.63
2018-06-02T03:44:42.715Z,49.50
2018-06-02T03:47:09.482Z,42.93
2018-06-02T03:49:36.215Z,49.20
2018-06-02T03:52:02.939Z,48.60
2018-06-02T03:54:29.690Z,52.50
2018-06-02T03:56:56.428Z,51.90
2018-06-02T03:59:23.194Z,52.37
2018-06-02T04:01:49.940Z,52.60
2018-06-02T04:04:16.696Z,51.30
2018-06-02T04:06:43.427Z,53.50
2018-06-02T04:09:10.189Z,55.70
2018-06-02T04:11:36.915Z,56.10
2018-06-02T04:14:03.650Z,57.60
2018-06-02T04:16:30.394Z,60.30
2018-06-02T04:18:57.130Z,58.90
2018-06-02T04:21:23.887Z,61.93
2018-06-02T04:23:50.626Z,59.77
2018-06-02T04:26:17.369Z,61.47
2018-06-02T04:28:44.116Z,57.70
2018-06-02T04:31:11.769Z,52.40
2018-06-02T04:33:38.497Z,59.00
2018-06-02T04:36:05.247Z,63.57
2018-06-02T04:38:31.997Z,67.80
2018-06-02T04:40:58.722Z,52.73
2018-06-02T04:43:25.491Z,65.80
2018-06-02T04:45:52.245Z,65.27
2018-06-02T04:48:18.971Z,61.47
2018-06-02T04:50:45.724Z,62.13
2018-06-02T04:53:12.473Z,67.00
2018-06-02T04:55:39.210Z,64.73
2018-06-02T04:58:05.963Z,65.77
2018-06-02T05:00:32.757Z,62.97
2018-06-02T05:02:59.487Z,63.57
2018-06-02T05:05:26.231Z,62.13
2018-06-02T05:07:52.967Z,56.97
2018-06-02T05:10:19.718Z,54.07
2018-06-02T05:12:46.453Z,53.67
2018-06-02T05:15:13.295Z,49.83
2018-06-02T05:17:40.018Z,50.30
2018-06-02T05:20:06.740Z,52.60
2018-06-02T05:22:33.465Z,52.30
2018-06-02T05:25:00.235Z,53.57
2018-06-02T05:27:26.968Z,52.63
2018-06-02T05:29:53.759Z,51.63
2018-06-02T05:32:20.519Z,53.57
2018-06-02T05:34:47.272Z,52.80
2018-06-02T05:37:14.047Z,55.80
2018-06-02T05:39:40.783Z,51.93
2018-06-02T05:42:07.526Z,57.93
2018-06-02T05:44:34.281Z,54.90
2018-06-02T05:47:01.010Z,57.13
2018-06-02T05:49:27.766Z,56.57
2018-06-02T05:51:54.512Z,56.70
2018-06-02T05:54:21.268Z,56.13
2018-06-02T05:56:47.992Z,54.10
2018-06-02T05:59:14.712Z,55.87
2018-06-02T06:01:41.478Z,53.53
2018-06-02T06:04:08.222Z,58.03
2018-06-02T06:06:34.964Z,53.30
2018-06-02T06:09:01.712Z,54.20
2018-06-02T06:11:28.477Z,56.90
2018-06-02T06:13:55.208Z,53.87
2018-06-02T06:16:21.966Z,56.27
2018-06-02T06:18:48.698Z,55.40
2018-06-02T06:21:15.454Z,56.77
2018-06-02T06:23:42.191Z,56.70
2018-06-02T06:26:08.940Z,56.67
2018-06-02T06:28:35.697Z,57.87
2018-06-02T06:31:02.433Z,61.50
2018-06-02T06:33:29.337Z,59.00
2018-06-02T06:35:56.096Z,58.97
2018-06-02T06:38:22.847Z,59.10
2018-06-02T06:40:49.627Z,58.40
2018-06-02T06:43:16.352Z,58.20
2018-06-02T06:45:43.117Z,56.23
2018-06-02T06:48:09.858Z,52.67
2018-06-02T06:50:36.688Z,53.23
2018-06-02T06:53:03.449Z,52.50
2018-06-02T06:55:30.214Z,49.23
2018-06-02T06:57:57.246Z,46.47
2018-06-02T07:00:23.984Z,48.00
2018-06-02T07:02:50.767Z,50.37
2018-06-02T07:05:17.532Z,51.27
2018-06-02T07:07:44.263Z,52.07
2018-06-02T07:10:11.472Z,50.53
2018-06-02T07:12:38.288Z,50.37
2018-06-02T07:15:05.043Z,51.80
2018-06-02T07:17:31.810Z,50.23
2018-06-02T07:19:58.572Z,53.00
2018-06-02T07:22:25.305Z,51.87
2018-06-02T07:24:52.046Z,51.60
2018-06-02T07:27:18.816Z,48.97
2018-06-02T07:29:45.542Z,46.73
2018-06-02T07:32:12.372Z,47.80
2018-06-02T07:34:39.146Z,46.67
2018-06-02T07:37:05.879Z,43.20
2018-06-02T07:39:35.751Z,43.03
2018-06-02T07:42:09.457Z,43.00
2018-06-02T07:44:41.854Z,41.90
2018-06-02T07:47:12.894Z,42.00
2018-06-02T07:49:43.995Z,41.83
2018-06-02T07:52:11.191Z,40.00
2018-06-02T07:54:40.088Z,38.10
2018-06-02T07:57:08.909Z,36.90
2018-06-02T07:59:39.706Z,39.23
2018-06-02T08:02:11.068Z,37.70
2018-06-02T08:04:40.882Z,36.60
2018-06-02T08:07:09.574Z,33.67
2018-06-02T08:09:43.166Z,36.23
2018-06-02T08:12:12.702Z,38.47
2018-06-02T08:14:40.245Z,37.40
2018-06-02T08:17:09.457Z,40.60
2018-06-02T08:19:37.044Z,41.20
2018-06-02T08:22:10.659Z,40.83
2018-06-02T08:24:37.687Z,43.17
2018-06-02T08:27:05.380Z,41.23
2018-06-02T08:29:34.078Z,48.50
2018-06-02T08:32:01.468Z,47.70
2018-06-02T08:34:28.877Z,44.47
2018-06-02T08:36:56.149Z,46.00
2018-06-02T08:39:24.106Z,47.33
2018-06-02T08:41:50.991Z,46.77
2018-06-02T08:44:17.998Z,44.10
2018-06-02T08:46:45.382Z,44.30
2018-06-02T08:49:12.143Z,44.00
2018-06-02T08:51:38.897Z,46.00
2018-06-02T08:54:05.654Z,41.60
2018-06-02T08:56:32.384Z,44.10
2018-06-02T08:58:59.153Z,42.37
2018-06-02T09:01:25.900Z,44.20
2018-06-02T09:03:52.642Z,40.50
2018-06-02T09:06:19.417Z,41.13
2018-06-02T09:08:46.606Z,43.13
2018-06-02T09:11:13.376Z,40.30
2018-06-02T09:13:40.161Z,42.30
2018-06-02T09:16:06.908Z,39.27
2018-06-02T09:18:33.730Z,40.30
2018-06-02T09:21:00.480Z,41.37
2018-06-02T09:23:27.218Z,42.63
2018-06-02T09:25:53.965Z,40.03
2018-06-02T09:28:20.765Z,40.10
2018-06-02T09:30:47.535Z,39.73
2018-06-02T09:33:14.284Z,40.30
2018-06-02T09:35:41.021Z,39.97
2018-06-02T09:38:07.800Z,40.73
2018-06-02T09:40:35.018Z,39.67
2018-06-02T09:43:02.194Z,41.37
2018-06-02T09:45:28.958Z,38.80
2018-06-02T09:47:55.725Z,36.60
2018-06-02T09:50:22.488Z,36.93
2018-06-02T09:52:49.336Z,37.77
2018-06-02T09:55:16.172Z,37.83
2018-06-02T09:57:42.997Z,35.80
2018-06-02T10:00:12.041Z,37.17
2018-06-02T10:02:40.906Z,37.70
2018-06-02T10:05:09.002Z,34.70
2018-06-02T10:07:36.045Z,39.07
2018-06-02T10:10:04.862Z,37.33
2018-06-02T10:12:31.683Z,35.97
2018-06-02T10:14:58.493Z,35.90
2018-06-02T10:17:25.225Z,35.40
2018-06-02T10:19:51.971Z,37.20
2018-06-02T10:22:18.701Z,33.63
2018-06-02T10:24:45.448Z,33.43
2018-06-02T10:27:12.197Z,32.60
2018-06-02T10:29:39.001Z,34.80
2018-06-02T10:32:05.916Z,33.80
2018-06-02T10:34:32.655Z,32.77
2018-06-02T10:36:59.389Z,32.60
2018-06-02T10:39:26.184Z,34.23
2018-06-02T10:41:52.934Z,33.00
2018-06-02T10:44:20.716Z,34.50
2018-06-02T10:46:47.488Z,35.27
2018-06-02T10:49:14.225Z,32.93
2018-06-02T10:51:40.986Z,30.60
2018-06-02T10:54:07.768Z,31.70
2018-06-02T10:56:34.495Z,32.40
2018-06-02T10:59:01.233Z,32.77
2018-06-02T11:01:28.634Z,32.30
2018-06-02T11:03:55.369Z,31.00
2018-06-02T11:06:22.163Z,29.10
2018-06-02T11:08:48.908Z,29.10
2018-06-02T11:11:15.641Z,27.90
2018-06-02T11:13:42.409Z,27.70
2018-06-02T11:16:09.149Z,29.33
2018-06-02T11:18:35.943Z,26.67
2018-06-02T11:21:02.670Z,28.20
2018-06-02T11:23:29.412Z,27.00
2018-06-02T11:25:56.195Z,25.77
2018-06-02T11:28:22.968Z,24.80
2018-06-02T11:30:49.706Z,23.60
2018-06-02T11:33:16.437Z,24.40
2018-06-02T11:35:43.187Z,24.20
2018-06-02T11:38:10.057Z,24.33
2018-06-02T11:40:36.788Z,24.90
2018-06-02T11:43:03.576Z,25.70
2018-06-02T11:45:30.331Z,25.43
2018-06-02T11:47:57.156Z,27.60
2018-06-02T11:50:23.930Z,25.60
2018-06-02T11:52:50.869Z,23.67
2018-06-02T11:55:18.370Z,21.70
2018-06-02T11:57:45.128Z,21.60
2018-06-02T12:00:11.866Z,20.40
2018-06-02T12:02:38.608Z,21.33
2018-06-02T12:05:05.384Z,21.43
2018-06-02T12:07:32.128Z,20.10
2018-06-02T12:09:58.859Z,20.33
2018-06-02T12:12:25.631Z,21.27
2018-06-02T12:14:52.370Z,19.53
2018-06-02T12:17:19.128Z,18.30
2018-06-02T12:19:46.094Z,18.03
2018-06-02T12:22:12.822Z,19.07
2018-06-02T12:24:39.571Z,16.60
2018-06-02T12:27:06.331Z,17.87
2018-06-02T12:29:33.060Z,17.33
2018-06-02T12:31:59.844Z,17.47
2018-06-02T12:34:26.576Z,17.73
2018-06-02T12:36:53.321Z,17.20
2018-06-02T12:39:20.077Z,16.10
2018-06-02T12:41:46.824Z,17.03
2018-06-02T12:44:13.593Z,17.07
2018-06-02T12:46:40.334Z,16.43
2018-06-02T12:49:07.109Z,15.80
2018-06-02T12:51:33.855Z,14.80
2018-06-02T12:54:00.616Z,16.17
2018-06-02T12:56:27.381Z,14.70
2018-06-02T12:58:54.117Z,15.57
2018-06-02T13:01:20.874Z,14.07
2018-06-02T13:03:47.613Z,13.10
2018-06-02T13:06:14.388Z,13.23
2018-06-02T13:08:41.128Z,14.23
2018-06-02T13:11:07.870Z,13.83
2018-06-02T13:13:34.643Z,13.63
2018-06-02T13:16:01.390Z,13.17
2018-06-02T13:18:28.143Z,12.33
2018-06-02T13:20:54.882Z,11.40
2018-06-02T13:23:21.635Z,11.10
2018-06-02T13:25:48.357Z,9.97
2018-06-02T13:28:15.076Z,9.90
2018-06-02T13:30:41.982Z,10.60
2018-06-02T13:33:08.772Z,10.77
2018-06-02T13:35:35.540Z,10.50
2018-06-02T13:38:02.614Z,11.33
2018-06-02T13:40:29.721Z,10.70
2018-06-02T13:42:56.510Z,10.30
2018-06-02T13:45:23.255Z,10.50
2018-06-02T13:47:50.073Z,11.17
2018-06-02T13:50:16.804Z,10.50
2018-06-02T13:52:43.523Z,10.07
2018-06-02T13:55:10.271Z,11.37
2018-06-02T13:57:37.044Z,11.70
2018-06-02T14:00:03.802Z,11.40
2018-06-02T14:02:30.559Z,12.57
2018-06-02T14:04:57.324Z,12.20
2018-06-02T14:07:24.050Z,13.23
2018-06-02T14:09:50.960Z,14.00
2018-06-02T14:12:17.693Z,12.20
2018-06-02T14:14:44.468Z,12.40
2018-06-02T14:17:11.296Z,13.10
2018-06-02T14:19:38.032Z,12.60
2018-06-02T14:22:04.805Z,12.97
2018-06-02T14:24:31.596Z,12.07
2018-06-02T14:26:58.329Z,11.60
2018-06-02T14:29:25.097Z,11.80
2018-06-02T14:31:51.826Z,13.00
2018-06-02T14:34:18.567Z,12.47
2018-06-02T14:36:45.334Z,11.70
2018-06-02T14:39:12.055Z,12.00
2018-06-02T14:41:38.782Z,13.73
2018-06-02T14:44:05.549Z,13.20
2018-06-02T14:46:32.279Z,13.77
2018-06-02T14:48:59.016Z,13.07
2018-06-02T14:51:25.774Z,12.30
2018-06-02T14:53:52.578Z,12.20
2018-06-02T14:56:19.337Z,11.87
2018-06-02T14:58:46.080Z,13.00
2018-06-02T15:01:12.832Z,12.83
2018-06-02T15:03:39.601Z,13.57
2018-06-02T15:06:06.348Z,12.60
2018-06-02T15:08:33.115Z,14.20
2018-06-02T15:10:59.893Z,13.60
2018-06-02T15:13:28.457Z,12.97
2018-06-02T15:15:55.453Z,14.07
2018-06-02T15:18:22.236Z,13.00
2018-06-02T15:20:48.964Z,13.60
2018-06-02T15:23:15.699Z,13.90
2018-06-02T15:25:42.459Z,13.90
2018-06-02T15:28:09.196Z,13.57
2018-06-02T15:30:35.940Z,13.40
2018-06-02T15:33:02.689Z,14.03
2018-06-02T15:35:29.440Z,12.67
2018-06-02T15:37:56.162Z,14.57
2018-06-02T15:40:23.064Z,14.57
2018-06-02T15:42:50.187Z,15.10
2018-06-02T15:45:17.125Z,15.00
2018-06-02T15:47:44.018Z,14.63
2018-06-02T15:50:10.972Z,14.87
2018-06-02T15:52:37.906Z,14.27
2018-06-02T15:55:04.807Z,13.70
2018-06-02T15:57:31.738Z,15.33
2018-06-02T15:59:58.794Z,15.00
2018-06-02T16:02:25.710Z,12.77
2018-06-02T16:04:52.582Z,15.47
2018-06-02T16:07:19.442Z,15.03
2018-06-02T16:09:46.220Z,14.33
2018-06-02T16:12:13.211Z,15.73
2018-06-02T16:14:40.277Z,15.40
2018-06-02T16:17:07.166Z,15.43
2018-06-02T16:19:34.049Z,15.93
2018-06-02T16:22:01.173Z,15.90
2018-06-02T16:24:28.057Z,15.77
2018-06-02T16:26:54.818Z,16.10
2018-06-02T16:29:21.583Z,16.33
2018-06-02T16:31:48.310Z,15.80
2018-06-02T16:34:15.055Z,15.87
2018-06-02T16:36:41.822Z,17.30
2018-06-02T16:39:08.579Z,17.70
2018-06-02T16:41:35.318Z,18.20
2018-06-02T16:44:02.088Z,16.57
2018-06-02T16:46:28.875Z,18.57
2018-06-02T16:48:55.621Z,19.33
2018-06-02T16:51:22.391Z,18.50
2018-06-02T16:53:49.140Z,18.53
2018-06-02T16:56:15.880Z,20.17
2018-06-02T16:58:42.651Z,20.00
2018-06-02T17:01:09.596Z,19.67
2018-06-02T17:03:36.458Z,21.10
2018-06-02T17:06:03.344Z,30.10
2018-06-02T17:08:30.094Z,28.40
2018-06-02T17:10:56.829Z,25.20
2018-06-02T17:13:23.746Z,26.40
2018-06-02T17:15:50.904Z,31.23
2018-06-02T17:18:17.686Z,29.00
2018-06-02T17:20:44.433Z,28.00
2018-06-02T17:23:11.660Z,29.93
2018-06-02T17:25:38.797Z,30.83
2018-06-02T17:28:05.705Z,28.30
2018-06-02T17:30:32.650Z,29.17
2018-06-02T17:32:59.429Z,25.97
2018-06-02T17:35:26.468Z,27.63
2018-06-02T17:37:53.575Z,25.97
2018-06-02T17:40:20.348Z,30.87
2018-06-02T17:42:47.448Z,29.27
2018-06-02T17:45:14.258Z,26.17
2018-06-02T17:47:41.028Z,24.10
2018-06-02T17:50:07.811Z,26.37
2018-06-02T17:52:34.573Z,26.17
2018-06-02T17:55:01.437Z,26.20
2018-06-02T17:57:28.177Z,23.60
2018-06-02T17:59:55.885Z,22.33
2018-06-02T18:02:22.617Z,23.33
2018-06-02T18:04:49.484Z,23.40
2018-06-02T18:07:16.397Z,23.43
2018-06-02T18:09:43.203Z,23.30
2018-06-02T18:12:10.151Z,23.00
2018-06-02T18:14:37.135Z,24.90
2018-06-02T18:17:04.070Z,24.67
2018-06-02T18:19:31.002Z,23.70
2018-06-02T18:21:57.859Z,21.73
2018-06-02T18:24:24.594Z,25.80
2018-06-02T18:26:51.539Z,23.40
2018-06-02T18:29:18.373Z,20.73
2018-06-02T18:31:45.285Z,23.87
2018-06-02T18:34:12.170Z,24.40
2018-06-02T18:36:39.009Z,24.70
2018-06-02T18:39:06.006Z,22.43
2018-06-02T18:41:32.992Z,26.23
2018-06-02T18:43:59.952Z,25.63
2018-06-02T18:46:26.858Z,23.47
2018-06-02T18:48:53.713Z,24.30
2018-06-02T18:51:20.679Z,25.50
2018-06-02T18:53:47.628Z,24.10
2018-06-02T18:56:14.561Z,24.20
2018-06-02T18:58:41.538Z,25.90
2018-06-02T19:01:08.505Z,23.30
2018-06-02T19:03:36.064Z,24.47
2018-06-02T19:06:03.103Z,24.73
2018-06-02T19:08:30.193Z,24.43
2018-06-02T19:10:57.120Z,25.70
2018-06-02T19:13:23.952Z,24.50
2018-06-02T19:15:51.538Z,24.97
2018-06-02T19:18:18.385Z,22.87
2018-06-02T19:20:45.230Z,25.50
2018-06-02T19:23:12.104Z,24.10
2018-06-02T19:25:38.974Z,24.80
2018-06-02T19:28:05.988Z,25.83
2018-06-02T19:33:06.388Z,25.27
2018-06-02T19:35:33.256Z,26.10
2018-06-02T19:38:00.143Z,23.50
2018-06-02T19:40:27.167Z,26.23
2018-06-02T19:42:54.126Z,26.00
2018-06-02T19:45:20.978Z,27.30
2018-06-02T19:47:47.811Z,24.70
2018-06-02T19:50:14.651Z,24.23
2018-06-02T19:52:41.481Z,25.40
2018-06-02T19:55:08.344Z,25.03
2018-06-02T19:57:35.184Z,25.57
2018-06-02T20:00:02.305Z,25.30
2018-06-02T20:02:29.524Z,25.23
2018-06-02T20:04:56.737Z,26.27
2018-06-02T20:07:23.558Z,25.73
2018-06-02T20:09:50.413Z,25.57
2018-06-02T20:12:17.297Z,25.83
2018-06-02T20:14:44.203Z,25.23
2018-06-02T20:17:11.005Z,25.67
2018-06-02T20:19:37.852Z,26.87
2018-06-02T20:22:04.797Z,27.47
2018-06-02T20:24:31.583Z,27.10
2018-06-02T20:26:58.415Z,27.90
2018-06-02T20:29:25.355Z,28.90
2018-06-02T20:31:52.167Z,29.20
2018-06-02T20:34:19.064Z,29.00
2018-06-02T20:36:45.878Z,29.37
2018-06-02T20:39:12.710Z,34.07
2018-06-02T20:41:39.603Z,30.33
2018-06-02T20:44:06.464Z,31.03
2018-06-02T20:46:33.293Z,32.10
2018-06-02T20:49:00.141Z,30.40
2018-06-02T20:51:27.017Z,27.50
2018-06-02T20:53:53.871Z,28.40
2018-06-02T20:56:20.709Z,28.73
2018-06-02T20:58:47.537Z,28.80
2018-06-02T21:01:14.460Z,27.90
2018-06-02T21:03:41.352Z,27.77
2018-06-02T21:06:08.860Z,26.10
2018-06-02T21:11:17.843Z,27.70
2018-06-02T21:13:44.855Z,27.83
2018-06-02T21:16:11.694Z,29.87
2018-06-02T21:18:39.446Z,30.97
2018-06-02T21:21:06.180Z,34.10
2018-06-02T21:23:32.961Z,32.43
2018-06-02T21:26:00.693Z,31.80
2018-06-02T21:28:29.203Z,31.30
2018-06-02T21:30:55.950Z,31.63
2018-06-02T21:33:22.776Z,30.00
2018-06-02T21:35:49.519Z,32.10
2018-06-02T21:38:16.246Z,30.33
2018-06-02T21:40:43.005Z,34.47
2018-06-02T21:43:10.913Z,32.30
2018-06-02T21:45:37.656Z,30.57
2018-06-02T21:48:04.422Z,32.70
2018-06-02T21:50:31.160Z,33.80
2018-06-02T21:52:58.107Z,31.63
2018-06-02T21:55:24.890Z,34.43
2018-06-02T21:57:51.622Z,34.27
2018-06-02T22:00:18.396Z,33.47
2018-06-02T22:02:45.134Z,32.70
2018-06-02T22:05:11.891Z,32.97
2018-06-02T22:07:38.647Z,35.77
2018-06-02T22:10:06.205Z,32.77
2018-06-02T22:12:33.498Z,34.70
2018-06-02T22:15:00.253Z,35.87
2018-06-02T22:17:26.981Z,37.13
2018-06-02T22:19:53.733Z,37.10
2018-06-02T22:22:20.600Z,38.23
2018-06-02T22:24:47.382Z,40.10
2018-06-02T22:27:14.412Z,39.10
2018-06-02T22:29:41.788Z,40.47
2018-06-02T22:32:08.573Z,38.00
2018-06-02T22:34:35.307Z,40.33
2018-06-02T22:37:02.062Z,39.97
2018-06-02T22:39:28.806Z,40.70
2018-06-02T22:41:56.609Z,38.07
2018-06-02T22:44:23.368Z,38.20
2018-06-02T22:46:50.097Z,38.20
2018-06-02T22:49:17.170Z,37.30
2018-06-02T22:51:49.794Z,37.77
2018-06-02T22:54:16.577Z,38.97
2018-06-02T22:56:43.312Z,38.07
2018-06-02T22:59:10.068Z,38.83
2018-06-02T23:01:36.848Z,37.80
2018-06-02T23:04:03.581Z,37.60
2018-06-02T23:06:30.507Z,37.57
2018-06-02T23:08:57.270Z,42.00
2018-06-02T23:11:24.059Z,40.53
2018-06-02T23:13:51.044Z,40.57
2018-06-02T23:16:17.970Z,36.20
2018-06-02T23:18:44.732Z,39.43
2018-06-02T23:21:11.487Z,37.20
2018-06-02T23:23:38.226Z,39.03
2018-06-02T23:26:04.985Z,41.03
2018-06-02T23:28:31.716Z,40.20
2018-06-02T23:30:58.483Z,40.67
2018-06-02T23:33:25.217Z,41.87
2018-06-02T23:35:51.968Z,38.67
2018-06-02T23:38:18.704Z,40.17
2018-06-02T23:40:45.470Z,42.47
2018-06-02T23:43:12.222Z,43.13
2018-06-02T23:45:38.945Z,40.23
2018-06-02T23:48:05.695Z,39.67
2018-06-02T23:50:32.451Z,41.30
2018-06-02T23:52:59.176Z,38.40
2018-06-02T23:55:26.074Z,38.67
2018-06-02T23:57:52.831Z,38.17
